Time;durP1;ratioP1;P1;durP2;ratioP2;P2;SDS_P1;SDS_P2;PMS_P1;PMS_P2;Temp;Humidity;BMP_temperature;BMP_pressure;BME280_temperature;BME280_humidity;BME280_pressure;Samples;Min_cycle;Max_cycle;Signal;HPM_P1;HPM_P2
2020/12/24 00:01:39;;;;;;;14.97;4.50;;;;;;;;;;5113436;28;20485;-53
2020/12/24 00:04:05;;;;;;;23.03;8.70;;;;;;;;;;5113585;28;20020;-53
2020/12/24 00:06:32;;;;;;;16.43;7.37;;;;;;;;;;5113422;28;20054;-53
2020/12/24 00:08:58;;;;;;;17.13;7.47;;;;;;;;;;5113757;28;20027;-53
2020/12/24 00:11:25;;;;;;;11.90;5.97;;;;;;;;;;5113343;28;20031;-53
2020/12/24 00:13:52;;;;;;;8.70;4.20;;;;;;;;;;5113449;28;20024;-53
2020/12/24 00:16:19;;;;;;;5.47;2.47;;;;;;;;;;5113339;28;20023;-53
2020/12/24 00:18:45;;;;;;;15.00;4.07;;;;;;;;;;5113349;28;20075;-53
2020/12/24 00:21:12;;;;;;;11.17;3.67;;;;;;;;;;5113579;27;20035;-53
2020/12/24 00:23:39;;;;;;;14.80;3.57;;;;;;;;;;5113226;28;20043;-53
2020/12/24 00:26:06;;;;;;;4.77;2.43;;;;;;;;;;5113142;28;20489;-53
2020/12/24 00:28:33;;;;;;;8.90;2.40;;;;;;;;;;5113089;28;20027;-53
2020/12/24 00:31:00;;;;;;;7.03;2.37;;;;;;;;;;5113187;28;20035;-53
2020/12/24 00:33:27;;;;;;;6.47;2.40;;;;;;;;;;5113180;28;20085;-53
2020/12/24 00:35:54;;;;;;;6.03;2.67;;;;;;;;;;5113152;28;20023;-53
2020/12/24 00:38:21;;;;;;;6.27;1.93;;;;;;;;;;5113092;28;20034;-53
2020/12/24 00:40:47;;;;;;;8.07;2.50;;;;;;;;;;5113034;28;20050;-53
2020/12/24 00:43:14;;;;;;;6.17;1.80;;;;;;;;;;5113194;28;20031;-53
2020/12/24 00:45:41;;;;;;;5.23;1.60;;;;;;;;;;5113332;28;20114;-53
2020/12/24 00:48:07;;;;;;;3.17;1.77;;;;;;;;;;5113028;28;20027;-53
2020/12/24 00:50:34;;;;;;;4.57;1.60;;;;;;;;;;5113002;28;20470;-53
2020/12/24 00:53:01;;;;;;;6.70;1.80;;;;;;;;;;5112946;28;20432;-53
2020/12/24 00:55:27;;;;;;;7.93;2.03;;;;;;;;;;5113037;28;20038;-53
2020/12/24 00:57:54;;;;;;;3.57;1.80;;;;;;;;;;5112848;28;20478;-53
2020/12/24 01:00:21;;;;;;;3.87;1.70;;;;;;;;;;5094637;28;20039;-53
2020/12/24 01:02:47;;;;;;;7.07;1.47;;;;;;;;;;5112831;28;20043;-53
2020/12/24 01:05:14;;;;;;;5.63;2.83;;;;;;;;;;5112918;28;20027;-53
2020/12/24 01:07:41;;;;;;;7.43;3.00;;;;;;;;;;5113242;28;20368;-53
2020/12/24 01:10:08;;;;;;;6.23;2.27;;;;;;;;;;5116711;28;20461;-53
2020/12/24 01:12:35;;;;;;;8.67;4.10;;;;;;;;;;5116574;28;20023;-53
2020/12/24 01:15:04;;;;;;;6.87;2.63;;;;;;;;;;5116639;28;20165;-53
2020/12/24 01:17:31;;;;;;;7.03;2.70;;;;;;;;;;5116553;28;20024;-53
2020/12/24 01:19:57;;;;;;;4.93;2.70;;;;;;;;;;5116618;28;20420;-53
2020/12/24 01:22:24;;;;;;;6.87;2.70;;;;;;;;;;5117057;27;20055;-53
2020/12/24 01:24:51;;;;;;;8.90;3.17;;;;;;;;;;5116445;28;20053;-53
2020/12/24 01:27:17;;;;;;;6.40;3.20;;;;;;;;;;5116749;28;20038;-53
2020/12/24 01:29:45;;;;;;;14.87;2.43;;;;;;;;;;5116185;28;20039;-53
2020/12/24 01:32:11;;;;;;;7.83;2.80;;;;;;;;;;5116578;28;20458;-53
2020/12/24 01:34:38;;;;;;;15.87;2.90;;;;;;;;;;5116215;28;20023;-53
2020/12/24 01:37:05;;;;;;;12.93;3.10;;;;;;;;;;5116188;28;20031;-53
2020/12/24 01:39:31;;;;;;;9.37;2.30;;;;;;;;;;5116116;28;20024;-53
2020/12/24 01:41:58;;;;;;;10.70;2.73;;;;;;;;;;5116078;28;20035;-53
2020/12/24 01:44:25;;;;;;;6.77;2.30;;;;;;;;;;5116239;28;20102;-53
2020/12/24 01:46:51;;;;;;;13.37;3.37;;;;;;;;;;5116115;28;20027;-53
2020/12/24 01:49:19;;;;;;;10.03;3.37;;;;;;;;;;5115941;28;20159;-53
2020/12/24 01:51:53;;;;;;;10.83;2.63;;;;;;;;;;5116011;28;20088;-53
2020/12/24 01:54:22;;;;;;;6.68;2.75;;;;;;;;;;5115923;28;20024;-53
2020/12/24 01:56:49;;;;;;;5.97;2.40;;;;;;;;;;5115832;28;20059;-53
2020/12/24 01:59:17;;;;;;;11.30;2.70;;;;;;;;;;5115875;28;20016;-53
2020/12/24 02:01:45;;;;;;;9.07;2.47;;;;;;;;;;5115690;28;20359;-53
2020/12/24 02:04:12;;;;;;;11.23;2.77;;;;;;;;;;5115691;28;20068;-53
2020/12/24 02:06:42;;;;;;;10.20;3.27;;;;;;;;;;5115693;28;20100;-53
2020/12/24 02:09:09;;;;;;;10.87;3.03;;;;;;;;;;5115720;28;20094;-53
2020/12/24 02:11:36;;;;;;;17.97;4.30;;;;;;;;;;5115641;28;20501;-53
2020/12/24 02:14:03;;;;;;;8.80;3.90;;;;;;;;;;5115671;28;20012;-53
2020/12/24 02:16:30;;;;;;;13.60;4.13;;;;;;;;;;5115412;28;20034;-53
2020/12/24 02:18:57;;;;;;;10.87;3.90;;;;;;;;;;5115200;28;20028;-53
2020/12/24 02:21:23;;;;;;;7.97;3.57;;;;;;;;;;5115797;27;20404;-53
2020/12/24 02:23:50;;;;;;;13.27;3.20;;;;;;;;;;5115391;28;20073;-52
2020/12/24 02:26:17;;;;;;;14.53;4.20;;;;;;;;;;5115272;28;20024;-53
2020/12/24 02:28:43;;;;;;;6.70;4.10;;;;;;;;;;5115247;28;20019;-53
2020/12/24 02:31:10;;;;;;;11.57;3.97;;;;;;;;;;5115291;28;20020;-53
2020/12/24 02:33:37;;;;;;;20.17;4.53;;;;;;;;;;5115025;28;20102;-52
2020/12/24 02:36:04;;;;;;;8.40;3.70;;;;;;;;;;5115161;28;20028;-53
2020/12/24 02:38:31;;;;;;;11.63;4.47;;;;;;;;;;5115018;28;20426;-53
2020/12/24 02:40:58;;;;;;;12.13;4.43;;;;;;;;;;5114909;28;20472;-53
2020/12/24 02:43:25;;;;;;;10.77;3.87;;;;;;;;;;5115062;28;20027;-53
2020/12/24 02:45:51;;;;;;;9.37;3.77;;;;;;;;;;5114765;28;20032;-53
2020/12/24 02:48:18;;;;;;;8.13;3.43;;;;;;;;;;5114862;28;20032;-53
2020/12/24 02:50:45;;;;;;;13.07;4.93;;;;;;;;;;5114921;28;20038;-53
2020/12/24 02:53:12;;;;;;;7.93;3.60;;;;;;;;;;5114747;28;20028;-53
2020/12/24 02:55:38;;;;;;;9.37;3.77;;;;;;;;;;5114642;28;20502;-53
2020/12/24 02:58:05;;;;;;;8.20;3.97;;;;;;;;;;5114493;28;20047;-53
2020/12/24 03:00:32;;;;;;;9.60;3.30;;;;;;;;;;5114581;28;20015;-53
2020/12/24 03:02:59;;;;;;;8.23;2.77;;;;;;;;;;5114702;28;20042;-53
2020/12/24 03:05:26;;;;;;;6.87;2.97;;;;;;;;;;5114588;28;20024;-53
2020/12/24 03:07:52;;;;;;;8.43;3.83;;;;;;;;;;5114234;28;20023;-52
2020/12/24 03:10:20;;;;;;;10.57;3.80;;;;;;;;;;5114398;28;20024;-53
2020/12/24 03:12:46;;;;;;;6.17;2.60;;;;;;;;;;5096169;28;20031;-53
2020/12/24 03:15:14;;;;;;;7.67;2.97;;;;;;;;;;5114353;28;20028;-53
2020/12/24 03:17:40;;;;;;;13.07;3.73;;;;;;;;;;5114070;28;20031;-54
2020/12/24 03:20:07;;;;;;;12.40;4.83;;;;;;;;;;5113972;28;20094;-53
2020/12/24 03:22:35;;;;;;;9.47;3.60;;;;;;;;;;5114628;27;20060;-53
2020/12/24 03:25:02;;;;;;;7.10;3.50;;;;;;;;;;5114131;28;20039;-53
2020/12/24 03:27:29;;;;;;;7.93;3.13;;;;;;;;;;5114063;28;20389;-53
2020/12/24 03:29:56;;;;;;;7.53;2.73;;;;;;;;;;5113789;28;20031;-53
2020/12/24 03:32:22;;;;;;;9.67;3.40;;;;;;;;;;5113541;28;20092;-52
2020/12/24 03:34:49;;;;;;;10.47;3.47;;;;;;;;;;5114009;28;20027;-53
2020/12/24 03:37:16;;;;;;;8.13;3.87;;;;;;;;;;5114060;28;20106;-53
2020/12/24 03:39:43;;;;;;;7.90;3.27;;;;;;;;;;5113805;28;20098;-53
2020/12/24 03:42:09;;;;;;;5.97;2.33;;;;;;;;;;5114183;28;20057;-53
2020/12/24 03:44:37;;;;;;;6.50;3.40;;;;;;;;;;5113917;28;20026;-53
2020/12/24 03:47:04;;;;;;;7.20;3.30;;;;;;;;;;5113696;28;20024;-53
2020/12/24 03:49:30;;;;;;;7.00;2.40;;;;;;;;;;5113677;28;20054;-53
2020/12/24 03:52:03;;;;;;;9.57;3.80;;;;;;;;;;5113712;28;20034;-53
2020/12/24 03:54:29;;;;;;;6.77;3.07;;;;;;;;;;5113753;28;20039;-53
2020/12/24 03:56:56;;;;;;;6.50;2.70;;;;;;;;;;5113729;28;20035;-53
2020/12/24 03:59:23;;;;;;;14.03;2.83;;;;;;;;;;5113545;28;20189;-53
2020/12/24 04:01:50;;;;;;;13.13;3.27;;;;;;;;;;5113355;28;20047;-53
2020/12/24 04:04:17;;;;;;;7.23;3.37;;;;;;;;;;5113617;28;20370;-53
2020/12/24 04:06:44;;;;;;;13.90;3.50;;;;;;;;;;5113481;28;20027;-53
2020/12/24 04:09:10;;;;;;;8.93;3.23;;;;;;;;;;5113287;28;20035;-53
2020/12/24 04:11:37;;;;;;;16.77;4.00;;;;;;;;;;5113407;28;20022;-53
2020/12/24 04:14:03;;;;;;;8.80;3.30;;;;;;;;;;5113540;28;20038;-53
2020/12/24 04:16:30;;;;;;;9.40;3.90;;;;;;;;;;5113280;28;20036;-53
2020/12/24 04:18:57;;;;;;;10.17;3.20;;;;;;;;;;5113306;28;20285;-53
2020/12/24 04:21:23;;;;;;;7.67;3.40;;;;;;;;;;5113151;28;20055;-53
2020/12/24 04:23:50;;;;;;;9.23;3.20;;;;;;;;;;5113773;27;20055;-53
2020/12/24 04:26:21;;;;;;;12.80;2.90;;;;;;;;;;5113357;28;20051;-53
2020/12/24 04:28:48;;;;;;;9.73;3.17;;;;;;;;;;5113174;28;20027;-53
2020/12/24 04:31:15;;;;;;;7.20;3.37;;;;;;;;;;5113352;28;20477;-53
2020/12/24 04:33:42;;;;;;;7.70;3.10;;;;;;;;;;5113207;28;20042;-53
2020/12/24 04:36:09;;;;;;;10.37;3.30;;;;;;;;;;5113272;28;20061;-53
2020/12/24 04:38:35;;;;;;;8.93;3.70;;;;;;;;;;5112999;28;20032;-53
2020/12/24 04:41:02;;;;;;;6.63;2.87;;;;;;;;;;5113040;28;20077;-52
2020/12/24 04:43:29;;;;;;;6.77;2.53;;;;;;;;;;5116705;28;20028;-53
2020/12/24 04:45:56;;;;;;;5.33;3.13;;;;;;;;;;5117258;28;20020;-53
2020/12/24 04:48:23;;;;;;;13.30;3.60;;;;;;;;;;5117122;28;20027;-53
2020/12/24 04:50:52;;;;;;;7.23;2.73;;;;;;;;;;5117104;28;20431;-53
2020/12/24 04:53:19;;;;;;;8.67;3.17;;;;;;;;;;5117395;28;20031;-53
2020/12/24 04:55:46;;;;;;;7.90;3.50;;;;;;;;;;5117024;28;20035;-53
2020/12/24 04:58:12;;;;;;;6.50;3.27;;;;;;;;;;5116924;28;20035;-53
2020/12/24 05:00:40;;;;;;;7.70;3.10;;;;;;;;;;5117080;28;20023;-53
2020/12/24 05:03:10;;;;;;;6.83;2.90;;;;;;;;;;5117030;28;20458;-53
2020/12/24 05:05:38;;;;;;;6.10;2.63;;;;;;;;;;5116848;28;20431;-53
2020/12/24 05:08:05;;;;;;;4.70;2.20;;;;;;;;;;5116815;28;20051;-53
2020/12/24 05:10:32;;;;;;;5.27;3.30;;;;;;;;;;5116645;28;20039;-53
2020/12/24 05:12:59;;;;;;;6.50;2.67;;;;;;;;;;5116684;28;20084;-53
2020/12/24 05:15:27;;;;;;;5.30;2.37;;;;;;;;;;5116713;28;20420;-53
2020/12/24 05:17:54;;;;;;;8.17;2.80;;;;;;;;;;5116367;28;20073;-53
2020/12/24 05:20:20;;;;;;;4.00;2.00;;;;;;;;;;5116570;28;20024;-53
2020/12/24 05:22:47;;;;;;;4.20;2.40;;;;;;;;;;5117081;27;20054;-53
2020/12/24 05:25:19;;;;;;;4.63;2.50;;;;;;;;;;5116445;28;20027;-53
2020/12/24 05:27:57;;;;;;;7.23;2.77;;;;;;;;;;5116345;28;20027;-53
2020/12/24 05:30:27;;;;;;;3.43;2.30;;;;;;;;;;5116423;28;20031;-53
2020/12/24 05:32:54;;;;;;;7.17;2.80;;;;;;;;;;5116202;28;20493;-53
2020/12/24 05:35:24;;;;;;;4.77;2.10;;;;;;;;;;5116339;28;20042;-53
2020/12/24 05:37:51;;;;;;;4.80;2.40;;;;;;;;;;5116569;28;20020;-53
2020/12/24 05:40:25;;;;;;;4.00;2.30;;;;;;;;;;5116282;28;20052;-53
2020/12/24 05:42:54;;;;;;;2.80;1.43;;;;;;;;;;5116041;28;20039;-53
2020/12/24 05:45:22;;;;;;;3.70;2.20;;;;;;;;;;5116118;28;20476;-53
2020/12/24 05:48:04;;;;;;;5.20;2.43;;;;;;;;;;5116295;28;20084;-53
2020/12/24 05:50:30;;;;;;;3.03;1.83;;;;;;;;;;5116017;28;20031;-53
2020/12/24 05:53:24;;;;;;;4.30;2.20;;;;;;;;;;5116047;28;20026;-53
2020/12/24 05:55:51;;;;;;;5.00;1.67;;;;;;;;;;5112860;28;20079;-53
2020/12/24 05:58:18;;;;;;;3.40;1.70;;;;;;;;;;5115751;28;20084;-53
2020/12/24 06:00:46;;;;;;;3.33;1.93;;;;;;;;;;5115674;28;20031;-53
2020/12/24 06:03:14;;;;;;;2.77;1.80;;;;;;;;;;5115299;28;20055;-53
2020/12/24 06:05:53;;;;;;;4.50;2.37;;;;;;;;;;5115858;28;20024;-53
2020/12/24 06:08:24;;;;;;;6.10;2.10;;;;;;;;;;5115648;28;20034;-53
2020/12/24 06:11:11;;;;;;;3.03;1.97;;;;;;;;;;5115576;28;20027;-53
2020/12/24 06:13:39;;;;;;;4.57;2.30;;;;;;;;;;5115648;28;20493;-52
2020/12/24 06:16:07;;;;;;;5.00;2.50;;;;;;;;;;5115509;28;20043;-52
2020/12/24 06:18:34;;;;;;;4.53;2.37;;;;;;;;;;5115727;28;20359;-53
2020/12/24 06:21:01;;;;;;;4.27;2.13;;;;;;;;;;5115332;28;20028;-53
2020/12/24 06:23:31;;;;;;;7.00;2.53;;;;;;;;;;5116113;27;20558;-53
2020/12/24 06:26:02;;;;;;;6.77;2.40;;;;;;;;;;5115361;28;20020;-53
2020/12/24 06:28:29;;;;;;;6.93;2.87;;;;;;;;;;5115154;28;20111;-53
2020/12/24 06:30:58;;;;;;;5.07;2.40;;;;;;;;;;5115146;28;20020;-52
2020/12/24 06:33:29;;;;;;;5.03;3.03;;;;;;;;;;5115059;28;20031;-53
2020/12/24 06:35:56;;;;;;;4.37;2.50;;;;;;;;;;5115349;28;20020;-52
2020/12/24 06:38:41;;;;;;;6.60;3.17;;;;;;;;;;5115147;28;20028;-53
2020/12/24 06:41:22;;;;;;;6.05;2.75;;;;;;;;;;5114933;28;20016;-52
2020/12/24 06:43:48;;;;;;;8.07;2.40;;;;;;;;;;5115033;28;20063;-53
2020/12/24 06:46:15;;;;;;;5.00;2.60;;;;;;;;;;5115026;28;20098;-52
2020/12/24 06:48:42;;;;;;;6.77;2.83;;;;;;;;;;5114934;28;20478;-53
2020/12/24 06:51:12;;;;;;;6.60;2.80;;;;;;;;;;5114674;28;20023;-53
2020/12/24 06:53:39;;;;;;;7.40;3.00;;;;;;;;;;5114771;28;20443;-52
2020/12/24 06:56:19;;;;;;;9.13;2.83;;;;;;;;;;5114721;28;20030;-53
2020/12/24 06:58:53;;;;;;;6.50;2.80;;;;;;;;;;5114588;28;20809;-53
2020/12/24 07:01:25;;;;;;;7.33;2.63;;;;;;;;;;5114717;28;20035;-53
2020/12/24 07:04:08;;;;;;;3.90;2.30;;;;;;;;;;5114792;28;20260;-52
2020/12/24 07:06:45;;;;;;;6.20;2.47;;;;;;;;;;5113587;28;20032;-53
2020/12/24 07:09:12;;;;;;;4.37;2.43;;;;;;;;;;5114385;28;20256;-52
2020/12/24 07:11:47;;;;;;;8.83;3.07;;;;;;;;;;5114381;28;20260;-53
2020/12/24 07:14:46;;;;;;;6.82;3.88;;;;;;;;;;5114545;28;20801;-53
2020/12/24 07:17:19;;;;;;;5.67;3.20;;;;;;;;;;5058908;28;20547;-52
2020/12/24 07:19:48;;;;;;;5.63;2.70;;;;;;;;;;5114281;28;20323;-52
2020/12/24 07:22:16;;;;;;;7.23;3.03;;;;;;;;;;5114751;27;20295;-52
2020/12/24 07:24:46;;;;;;;4.43;2.40;;;;;;;;;;5114278;28;20277;-53
2020/12/24 07:27:13;;;;;;;3.87;2.27;;;;;;;;;;5114218;28;20252;-53
2020/12/24 07:29:46;;;;;;;3.70;2.30;;;;;;;;;;5114133;28;20331;-53
2020/12/24 07:32:13;;;;;;;6.87;2.90;;;;;;;;;;5114034;28;20343;-52
2020/12/24 07:34:40;;;;;;;5.13;1.90;;;;;;;;;;5113948;28;20248;-53
2020/12/24 07:37:06;;;;;;;6.10;2.93;;;;;;;;;;5114002;28;20332;-53
2020/12/24 07:39:33;;;;;;;7.03;2.80;;;;;;;;;;5113848;28;20284;-52
2020/12/24 07:42:01;;;;;;;4.63;2.67;;;;;;;;;;5113812;28;20279;-53
2020/12/24 07:44:27;;;;;;;4.93;2.50;;;;;;;;;;5113972;28;20256;-53
2020/12/24 07:47:01;;;;;;;6.90;2.50;;;;;;;;;;5113742;28;20247;-53
2020/12/24 07:49:28;;;;;;;4.13;2.30;;;;;;;;;;5113686;28;20263;-53
2020/12/24 07:51:55;;;;;;;4.47;2.30;;;;;;;;;;5113659;28;20251;-52
2020/12/24 07:54:26;;;;;;;4.87;2.23;;;;;;;;;;5113838;28;20554;-53
2020/12/24 07:56:53;;;;;;;4.57;2.60;;;;;;;;;;5113647;28;20236;-53
2020/12/24 07:59:20;;;;;;;8.57;2.57;;;;;;;;;;5113541;28;20260;-53
2020/12/24 08:01:47;;;;;;;8.47;2.70;;;;;;;;;;5113573;28;20291;-53
2020/12/24 08:04:13;;;;;;;5.77;2.23;;;;;;;;;;5113427;28;20714;-53
2020/12/24 08:06:40;;;;;;;7.07;2.60;;;;;;;;;;5113462;28;20288;-53
2020/12/24 08:09:17;;;;;;;4.57;2.50;;;;;;;;;;5113397;28;20285;-52
2020/12/24 08:11:56;;;;;;;5.83;3.03;;;;;;;;;;5113435;28;20327;-54
2020/12/24 08:14:27;;;;;;;5.63;3.17;;;;;;;;;;5113342;28;20264;-53
2020/12/24 08:16:55;;;;;;;4.63;2.93;;;;;;;;;;5113082;28;20673;-53
2020/12/24 08:19:34;;;;;;;6.73;2.90;;;;;;;;;;5113248;28;20364;-52
2020/12/24 08:22:04;;;;;;;8.03;3.17;;;;;;;;;;5114266;27;20288;-52
2020/12/24 08:24:32;;;;;;;5.67;2.93;;;;;;;;;;5092879;28;20310;-53
2020/12/24 08:26:58;;;;;;;4.87;2.67;;;;;;;;;;5092851;28;20241;-53
2020/12/24 08:29:26;;;;;;;5.50;2.60;;;;;;;;;;5092806;28;20328;-52
2020/12/24 08:31:53;;;;;;;8.07;2.70;;;;;;;;;;5092903;28;20256;-53
2020/12/24 08:34:19;;;;;;;5.73;2.50;;;;;;;;;;5092646;28;20607;-52
2020/12/24 08:36:47;;;;;;;4.37;2.43;;;;;;;;;;5092914;28;20259;-53
2020/12/24 08:39:16;;;;;;;5.50;2.70;;;;;;;;;;5092776;28;20762;-53
2020/12/24 08:41:45;;;;;;;5.77;2.93;;;;;;;;;;5092654;28;20356;-53
2020/12/24 08:44:16;;;;;;;5.30;2.70;;;;;;;;;;5092817;28;20290;-53
2020/12/24 08:46:43;;;;;;;6.20;3.10;;;;;;;;;;5092832;28;20276;-53
2020/12/24 08:49:23;;;;;;;4.33;2.20;;;;;;;;;;5092603;28;20774;-52
2020/12/24 08:51:51;;;;;;;4.80;2.30;;;;;;;;;;5092713;28;20256;-53
2020/12/24 08:54:18;;;;;;;5.90;3.17;;;;;;;;;;5092634;28;20603;-52
2020/12/24 08:56:45;;;;;;;4.63;2.70;;;;;;;;;;5092601;28;20332;-52
2020/12/24 08:59:16;;;;;;;6.40;2.87;;;;;;;;;;5092719;28;20251;-53
2020/12/24 09:01:43;;;;;;;6.90;3.23;;;;;;;;;;5092620;28;20316;-53
2020/12/24 09:04:19;;;;;;;6.77;3.03;;;;;;;;;;5092796;28;20265;-52
2020/12/24 09:06:46;;;;;;;4.07;2.53;;;;;;;;;;5092517;28;20328;-52
2020/12/24 09:09:25;;;;;;;4.33;2.50;;;;;;;;;;5092476;28;20253;-52
2020/12/24 09:11:53;;;;;;;3.57;2.33;;;;;;;;;;5092512;28;20252;-53
2020/12/24 09:14:24;;;;;;;5.37;2.63;;;;;;;;;;5092471;28;20245;-53
2020/12/24 09:16:58;;;;;;;5.27;3.20;;;;;;;;;;5092472;28;20257;-53
2020/12/24 09:19:25;;;;;;;6.97;2.70;;;;;;;;;;5092667;28;20253;-53
2020/12/24 09:21:56;;;;;;;3.73;2.40;;;;;;;;;;5092277;28;20789;-52
2020/12/24 09:24:23;;;;;;;7.63;2.77;;;;;;;;;;5112551;27;20355;-52
2020/12/24 09:26:51;;;;;;;4.10;2.43;;;;;;;;;;5094470;28;20754;-53
2020/12/24 09:29:19;;;;;;;5.97;2.60;;;;;;;;;;5114132;28;20702;-53
2020/12/24 09:31:53;;;;;;;6.40;2.27;;;;;;;;;;5116422;28;20290;-52
2020/12/24 09:34:20;;;;;;;4.43;2.50;;;;;;;;;;5116267;28;20287;-52
2020/12/24 09:36:47;;;;;;;6.77;2.27;;;;;;;;;;5116281;28;20260;-53
2020/12/24 09:39:14;;;;;;;7.17;3.00;;;;;;;;;;5116299;28;20259;-53
2020/12/24 09:41:42;;;;;;;4.53;2.20;;;;;;;;;;5116148;28;20298;-52
2020/12/24 09:44:09;;;;;;;4.27;2.40;;;;;;;;;;5116146;28;20298;-52
2020/12/24 09:46:35;;;;;;;6.80;2.60;;;;;;;;;;5116173;28;20331;-53
2020/12/24 09:49:02;;;;;;;4.70;2.70;;;;;;;;;;5115929;28;20757;-52
2020/12/24 09:51:32;;;;;;;7.03;2.80;;;;;;;;;;5116018;28;20248;-52
2020/12/24 09:53:58;;;;;;;5.20;2.47;;;;;;;;;;5115955;28;20252;-53
2020/12/24 09:56:25;;;;;;;5.63;2.63;;;;;;;;;;5115942;28;20244;-52
2020/12/24 09:58:52;;;;;;;4.93;2.73;;;;;;;;;;5115828;28;20267;-53
2020/12/24 10:01:19;;;;;;;7.40;2.60;;;;;;;;;;5115709;28;20333;-53
2020/12/24 10:03:46;;;;;;;6.43;3.30;;;;;;;;;;5115677;28;20268;-53
2020/12/24 10:06:13;;;;;;;5.50;2.80;;;;;;;;;;5115607;28;20636;-52
2020/12/24 10:08:40;;;;;;;6.10;2.50;;;;;;;;;;5115701;28;20256;-52
2020/12/24 10:11:15;;;;;;;5.07;2.53;;;;;;;;;;5115508;28;20260;-52
2020/12/24 10:13:43;;;;;;;6.77;2.90;;;;;;;;;;5115745;28;20304;-52
2020/12/24 10:16:10;;;;;;;4.00;2.43;;;;;;;;;;5115634;28;20602;-52
2020/12/24 10:18:37;;;;;;;7.10;3.17;;;;;;;;;;5115502;28;20248;-53
2020/12/24 10:21:04;;;;;;;5.20;2.50;;;;;;;;;;5115315;28;20256;-52
2020/12/24 10:23:30;;;;;;;7.53;2.67;;;;;;;;;;5116107;27;20321;-53
2020/12/24 10:25:57;;;;;;;5.70;3.00;;;;;;;;;;5115363;28;20248;-52
2020/12/24 10:28:24;;;;;;;4.77;3.03;;;;;;;;;;5115282;28;20596;-52
2020/12/24 10:30:50;;;;;;;6.43;2.83;;;;;;;;;;5115197;28;20259;-53
2020/12/24 10:33:17;;;;;;;5.63;2.67;;;;;;;;;;5115107;28;20263;-52
2020/12/24 10:35:44;;;;;;;6.67;3.20;;;;;;;;;;5115126;28;20244;-52
2020/12/24 10:38:11;;;;;;;5.10;2.73;;;;;;;;;;5115009;28;20653;-53
2020/12/24 10:40:37;;;;;;;4.50;2.80;;;;;;;;;;5114934;28;20272;-52
2020/12/24 10:43:04;;;;;;;6.33;2.83;;;;;;;;;;5115011;28;20287;-52
2020/12/24 10:45:31;;;;;;;5.33;3.10;;;;;;;;;;5115066;28;20248;-52
2020/12/24 10:47:58;;;;;;;7.37;3.43;;;;;;;;;;5114834;28;20260;-52
2020/12/24 10:50:25;;;;;;;4.87;2.83;;;;;;;;;;5114998;28;20743;-52
2020/12/24 10:52:51;;;;;;;7.40;3.13;;;;;;;;;;5114742;28;20367;-52
2020/12/24 10:55:18;;;;;;;6.23;3.70;;;;;;;;;;5114744;28;20324;-52
2020/12/24 10:57:46;;;;;;;8.17;3.97;;;;;;;;;;5114664;28;20244;-53
2020/12/24 11:00:14;;;;;;;7.20;3.83;;;;;;;;;;5114748;28;20258;-52
2020/12/24 11:02:41;;;;;;;5.87;3.63;;;;;;;;;;5114517;28;20279;-53
2020/12/24 11:05:08;;;;;;;5.43;3.07;;;;;;;;;;5114696;28;20248;-52
2020/12/24 11:07:35;;;;;;;6.47;3.60;;;;;;;;;;5114546;28;20266;-52
2020/12/24 11:10:01;;;;;;;13.53;4.10;;;;;;;;;;5114463;28;20288;-52
2020/12/24 11:12:28;;;;;;;14.23;5.77;;;;;;;;;;5114794;28;20252;-52
2020/12/24 11:14:55;;;;;;;12.77;5.73;;;;;;;;;;5114499;28;20251;-52
2020/12/24 11:17:22;;;;;;;11.47;4.30;;;;;;;;;;5114153;28;20252;-53
2020/12/24 11:19:48;;;;;;;6.07;3.63;;;;;;;;;;5114375;28;20801;-53
2020/12/24 11:22:15;;;;;;;7.60;4.40;;;;;;;;;;5114068;28;20371;-52
2020/12/24 11:24:42;;;;;;;7.03;3.67;;;;;;;;;;5112762;28;20308;-53
2020/12/24 11:27:09;;;;;;;8.23;4.37;;;;;;;;;;5114218;28;20247;-53
2020/12/24 11:29:36;;;;;;;11.63;4.23;;;;;;;;;;5114206;28;20756;-52
2020/12/24 11:32:02;;;;;;;14.03;5.40;;;;;;;;;;5114120;28;20297;-52
2020/12/24 11:34:29;;;;;;;10.17;4.80;;;;;;;;;;5114086;28;20640;-52
2020/12/24 11:36:57;;;;;;;9.37;5.13;;;;;;;;;;5113979;28;20342;-52
2020/12/24 11:39:23;;;;;;;11.43;4.53;;;;;;;;;;5113877;28;20248;-52
2020/12/24 11:41:50;;;;;;;9.17;4.97;;;;;;;;;;5113808;28;20360;-52
2020/12/24 11:44:17;;;;;;;10.70;5.33;;;;;;;;;;5113995;28;20271;-52
2020/12/24 11:46:44;;;;;;;9.77;4.77;;;;;;;;;;5113744;28;20251;-52
2020/12/24 11:49:11;;;;;;;8.60;4.30;;;;;;;;;;5113603;28;20260;-52
2020/12/24 11:51:38;;;;;;;7.47;4.13;;;;;;;;;;5113181;28;20260;-52
2020/12/24 11:54:04;;;;;;;12.87;4.57;;;;;;;;;;5113741;28;20259;-52
2020/12/24 11:56:31;;;;;;;10.93;4.50;;;;;;;;;;5113622;28;20247;-52
2020/12/24 11:58:57;;;;;;;10.13;4.33;;;;;;;;;;5113597;28;20267;-53
2020/12/24 12:01:24;;;;;;;8.57;3.83;;;;;;;;;;5113492;28;20272;-53
2020/12/24 12:03:52;;;;;;;12.40;4.57;;;;;;;;;;5113592;28;20326;-52
2020/12/24 12:06:19;;;;;;;8.27;4.53;;;;;;;;;;5113767;28;20244;-52
2020/12/24 12:08:46;;;;;;;8.37;4.73;;;;;;;;;;5113463;28;20624;-52
2020/12/24 12:11:13;;;;;;;10.57;5.33;;;;;;;;;;5113458;28;20232;-53
2020/12/24 12:13:40;;;;;;;7.90;4.37;;;;;;;;;;5113511;28;20343;-52
2020/12/24 12:16:07;;;;;;;8.50;4.17;;;;;;;;;;5113404;28;20765;-52
2020/12/24 12:18:35;;;;;;;10.73;4.53;;;;;;;;;;5113249;28;20753;-52
2020/12/24 12:21:02;;;;;;;7.53;4.47;;;;;;;;;;5113264;28;20252;-52
2020/12/24 12:23:29;;;;;;;8.87;3.70;;;;;;;;;;5113613;27;20284;-52
2020/12/24 12:25:56;;;;;;;8.67;3.67;;;;;;;;;;5113455;28;20251;-52
2020/12/24 12:28:22;;;;;;;8.37;3.63;;;;;;;;;;5113175;28;20263;-52
2020/12/24 12:30:49;;;;;;;6.27;3.10;;;;;;;;;;5113498;28;20382;-52
2020/12/24 12:33:16;;;;;;;6.80;3.47;;;;;;;;;;5113155;28;20251;-53
2020/12/24 12:35:42;;;;;;;10.43;3.60;;;;;;;;;;5113170;28;20271;-52
2020/12/24 12:38:09;;;;;;;5.40;3.33;;;;;;;;;;5113099;28;20327;-52
2020/12/24 12:40:36;;;;;;;6.63;3.90;;;;;;;;;;5113270;28;20247;-52
2020/12/24 12:43:03;;;;;;;10.63;3.77;;;;;;;;;;5113038;28;20374;-52
2020/12/24 12:45:29;;;;;;;6.97;4.30;;;;;;;;;;5113115;28;20849;-52
2020/12/24 12:47:56;;;;;;;7.80;3.53;;;;;;;;;;5112976;28;20278;-52
2020/12/24 12:50:23;;;;;;;7.83;4.20;;;;;;;;;;5113025;28;20256;-52
2020/12/24 12:52:49;;;;;;;8.00;4.30;;;;;;;;;;5112868;28;20253;-52
2020/12/24 12:55:16;;;;;;;10.27;3.70;;;;;;;;;;5113120;28;20287;-52
2020/12/24 12:57:43;;;;;;;10.67;3.60;;;;;;;;;;5112926;28;20260;-52
2020/12/24 13:00:10;;;;;;;5.37;3.20;;;;;;;;;;5112975;28;20307;-52
2020/12/24 13:02:37;;;;;;;6.40;3.63;;;;;;;;;;5112961;28;20317;-52
2020/12/24 13:05:05;;;;;;;11.97;3.70;;;;;;;;;;5115600;28;20301;-52
2020/12/24 13:07:32;;;;;;;9.20;3.47;;;;;;;;;;5116826;28;20667;-52
2020/12/24 13:09:58;;;;;;;13.87;3.97;;;;;;;;;;5116733;28;20256;-53
2020/12/24 13:12:25;;;;;;;7.90;3.70;;;;;;;;;;5116759;28;20252;-52
2020/12/24 13:14:52;;;;;;;7.97;4.20;;;;;;;;;;5116795;28;20252;-52
2020/12/24 13:17:18;;;;;;;11.93;3.90;;;;;;;;;;5116781;28;20725;-54
2020/12/24 13:19:45;;;;;;;9.23;3.37;;;;;;;;;;5116639;28;20652;-52
2020/12/24 13:22:12;;;;;;;9.67;3.77;;;;;;;;;;5116708;28;20310;-52
2020/12/24 13:24:39;;;;;;;10.27;4.30;;;;;;;;;;5117058;27;20276;-52
2020/12/24 13:27:06;;;;;;;10.23;3.60;;;;;;;;;;5116417;28;20345;-52
2020/12/24 13:29:33;;;;;;;9.37;4.00;;;;;;;;;;5116389;28;20732;-53
2020/12/24 13:31:59;;;;;;;10.37;4.50;;;;;;;;;;5116236;28;20256;-53
2020/12/24 13:34:26;;;;;;;8.87;4.43;;;;;;;;;;5116461;28;20323;-52
2020/12/24 13:36:53;;;;;;;8.90;4.50;;;;;;;;;;5116213;28;20259;-52
2020/12/24 13:39:19;;;;;;;12.73;4.27;;;;;;;;;;5116184;28;20262;-52
2020/12/24 13:41:53;;;;;;;9.50;4.43;;;;;;;;;;5116457;28;20279;-52
2020/12/24 13:44:20;;;;;;;9.27;4.57;;;;;;;;;;5116049;28;20264;-53
2020/12/24 13:46:53;;;;;;;14.47;6.10;;;;;;;;;;5116152;28;20244;-52
2020/12/24 13:49:20;;;;;;;10.50;6.10;;;;;;;;;;5116113;28;20252;-52
2020/12/24 13:51:53;;;;;;;14.10;8.03;;;;;;;;;;5116069;28;20241;-52
2020/12/24 13:54:20;;;;;;;12.40;6.33;;;;;;;;;;5116024;28;20263;-52
2020/12/24 13:56:50;;;;;;;9.97;5.07;;;;;;;;;;5115895;28;20726;-52
2020/12/24 13:59:17;;;;;;;14.63;5.60;;;;;;;;;;5115869;28;20276;-52
2020/12/24 14:01:51;;;;;;;11.83;6.53;;;;;;;;;;5115752;28;20630;-52
2020/12/24 14:04:17;;;;;;;17.20;8.60;;;;;;;;;;5115763;28;20355;-53
2020/12/24 14:06:48;;;;;;;18.10;9.07;;;;;;;;;;5115790;28;20325;-52
2020/12/24 14:09:15;;;;;;;15.13;9.40;;;;;;;;;;5115504;28;20267;-53
2020/12/24 14:11:41;;;;;;;17.67;9.87;;;;;;;;;;5115697;28;20259;-53
2020/12/24 14:14:09;;;;;;;19.67;9.73;;;;;;;;;;5115447;28;20259;-53
2020/12/24 14:16:36;;;;;;;19.07;10.83;;;;;;;;;;5115205;28;20729;-53
2020/12/24 14:19:08;;;;;;;18.97;10.37;;;;;;;;;;5115414;28;20256;-52
2020/12/24 14:21:43;;;;;;;16.37;10.47;;;;;;;;;;5115247;28;20023;-53
2020/12/24 14:24:10;;;;;;;16.80;10.00;;;;;;;;;;5115859;27;20052;-53
2020/12/24 14:26:38;;;;;;;19.97;7.80;;;;;;;;;;5115422;28;20152;-53
2020/12/24 14:29:05;;;;;;;16.03;7.27;;;;;;;;;;5115169;28;20027;-53
2020/12/24 14:31:32;;;;;;;11.47;6.67;;;;;;;;;;5115345;28;20027;-53
2020/12/24 14:34:00;;;;;;;9.30;6.10;;;;;;;;;;5115133;28;20016;-53
2020/12/24 14:36:28;;;;;;;8.67;5.00;;;;;;;;;;5115128;28;20028;-52
2020/12/24 14:38:54;;;;;;;6.07;3.97;;;;;;;;;;5115014;28;20375;-53
2020/12/24 14:41:21;;;;;;;5.67;3.60;;;;;;;;;;5115007;28;20081;-53
2020/12/24 14:43:48;;;;;;;6.57;3.93;;;;;;;;;;5115015;28;20026;-53
2020/12/24 14:46:14;;;;;;;6.83;3.33;;;;;;;;;;5115076;28;20015;-53